Crocus Hill, Anguilla

6:47 AM AST on April 20, 2018 (GMT -0400)
Princess Juliana International | | Change Station

Elev 30 ft 18.05 °N, 63.12 °W | Updated 47 minutes ago

Rain
Rain
75 °F
Feels Like 75 °F
N
16
Wind Variable Wind from East

Today
High -- | Low -- °F
--% Chance of Precip.
Yesterday
High -- | Low -- °F
Precip. -- in
Pressure 30.09 in
Visibility 6.2 miles
Clouds Scattered Clouds 1600 ft
Scattered Clouds 3500 ft
Dew Point 70 °F
Humidity 83%
Rainfall 0.00 in
Snow Depth Not available.
5:52 AM 6:30 PM
Waxing Crescent, 23% visible
METAR TNCM 201000Z 10014KT 060V130 9999 -SHRA SCT016 SCT035 24/21 Q1019 A3010 TEMPO SHRA RMK VIS 2KM NE
Pressure 30.09 in
Visibility 6.2 miles
Clouds Scattered Clouds 1600 ft
Scattered Clouds 3500 ft
Dew Point 70 °F
Humidity 83%
Rainfall 0.00 in
Snow Depth Not available.
5:52 AM 6:30 PM
Waxing Crescent, 23% visible
METAR TNCM 201000Z 10014KT 060V130 9999 -SHRA SCT016 SCT035 24/21 Q1019 A3010 TEMPO SHRA RMK VIS 2KM NE

Get Severe Weather Alerts

Thanks for signing up!

Be on the lookout for a verification email in your inbox.

You'll start receiving the daily forecast at 6 AM.

×

10-Day Weather Forecast

No radar image for this location.
×

Almanac

Astronomy

Apr. 20, 2018 Rise Set
Actual Time
Civil Twilight
Nautical Twilight
Astronomical Twilight
Moon
Length of Visible Light
Length of Day
Tomorrow will be .
, % of the Moon is Illuminated

Today's Extremes

Country Highs Country Lows

Community

WunderPhotos

Category 6

Welcome to Category 6. This is the collective home for Weather Underground's featured writeups by Dr. Jeff Masters (right), Bob Henson (left), Chris Burt, and other regular contributors.

Nearby

Air Quality

  Air Quality AQ Index Pollutant
Not available.

Snow Depth

Station Depth Elevation

Earthquake Activity

City Distance Mag. Time & Date
Minimum magnitude displayed is 2.5.

Coastal Water Temperatures

Place Temperature

Stations

Nearby Weather Stations

Station Location Temp. Windchill Dew Point Humidity Wind Precip. Elev Updated Type